Latest Weather Observations for Bowen Airport AWS

IDQ60801

Issued at 8:02 pm EST Friday 27 May 2016 (issued every 30 minutes, with the page automatically refreshed every 10 minutes)

About weather observations | Map of weather stations | Latest weather observations for QLD | Other Formats
Station Details ID: 033327 Name: BOWEN AIRPORT AWS Lat: -20.02 Lon: 148.21 Height: 5.9 m
Data from the previous 72 hours. | See also: Recent months at Bowen Airport AWS
Date/Time
EST
Temp
°C
App
Temp
°C
Dew
Point
Rel
Hum
%
Delta-T
°C
Wind Press
QNH
hPa
Press
MSL
hPa
Rain
since 9 am
mm
Dir
 
Spd
km/h
Gust
km/h
Spd
kts
Gust
kts
27/08:00pm 24.7 28.9 23.5 93 0.8 NW 7 11 4 6 1012.2 1012.1 0.0
27/07:30pm 24.9 28.7 23.5 92 1.0 NW 9 13 5 7 1012.0 1011.9 0.0
27/07:00pm 25.1 28.3 23.7 92 1.0 NW 13 19 7 10 1011.5 1011.4 0.0
27/06:30pm 25.2 27.9 23.4 90 1.2 NW 15 22 8 12 1011.1 1011.0 0.0
27/06:00pm 25.4 27.3 23.5 89 1.3 NNW 19 26 10 14 1010.9 1010.8 0.0
27/05:30pm 25.7 27.0 23.4 87 1.6 NW 22 32 12 17 1010.7 1010.6 0.0
27/05:00pm 26.4 26.8 23.1 82 2.2 NW 26 35 14 19 1010.2 1010.1 0.0
27/04:30pm 26.9 27.2 22.9 79 2.7 NNW 26 35 14 19 1009.9 1009.8 0.0
27/04:00pm 27.3 27.7 23.1 78 2.9 NNW 26 33 14 18 1009.9 1009.8 0.0
27/03:30pm 27.7 27.3 22.4 73 3.6 NNW 28 39 15 21 1009.9 1009.8 0.0
27/03:00pm 28.6 28.3 23.3 73 3.6 NNW 30 41 16 22 1010.2 1010.1 0.0
27/02:30pm 28.3 27.8 22.8 72 3.7 NNW 30 39 16 21 1010.3 1010.2 0.0
27/02:00pm 28.8 28.5 22.5 68 4.3 NNW 28 39 15 21 1010.6 1010.5 0.0
27/01:30pm 28.8 28.3 22.1 67 4.5 NNW 28 37 15 20 1010.9 1010.8 0.0
27/01:00pm 30.1 30.2 22.5 63 5.2 NNW 26 33 14 18 1011.4 1011.3 0.0
27/12:30pm 29.6 28.5 21.8 63 5.3 NNW 30 35 16 19 1012.0 1011.9 0.0
27/12:00pm 29.3 29.1 22.0 64 4.9 NNW 26 35 14 19 1012.5 1012.4 0.0
27/11:30am 29.1 28.9 21.3 62 5.2 NNW 24 33 13 18 1012.9 1012.8 0.0
27/11:00am 29.3 29.7 21.0 61 5.5 NW 20 33 11 18 1013.5 1013.4 0.0
27/10:30am 28.8 30.2 21.8 66 4.7 NW 17 26 9 14 1013.8 1013.7 0.0
27/10:00am 29.0 30.2 21.5 64 5.0 NW 17 22 9 12 1014.2 1014.1 0.0
27/09:30am 28.6 30.8 22.6 70 4.1 NW 15 26 8 14 1014.4 1014.3 0.0
27/09:00am 27.5 30.6 22.2 73 3.6 NW 9 19 5 10 1014.5 1014.4 0.0
27/08:30am 25.6 29.1 21.1 76 3.0 W 4 6 2 3 1014.4 1014.3 0.0
27/08:00am 23.9 27.6 20.8 83 2.0 SW 2 4 1 2 1014.2 1014.1 0.0
27/07:30am 22.0 24.8 20.5 91 1.0 SW 6 7 3 4 1014.1 1014.0 0.0
27/07:00am 20.2 22.3 19.4 95 0.5 SW 7 9 4 5 1013.8 1013.7 0.0
27/06:30am 19.5 21.2 18.5 94 0.6 SW 7 9 4 5 1013.5 1013.4 0.0
27/06:00am 19.6 21.8 18.4 93 0.7 SW 4 7 2 4 1013.2 1013.1 0.0
27/05:30am 19.7 21.8 18.9 95 0.5 W 6 7 3 4 1012.9 1012.8 0.0
27/05:00am 19.4 21.2 18.4 94 0.6 W 6 6 3 3 1012.7 1012.6 0.0
27/04:30am 19.3 21.1 18.3 94 0.6 W 6 6 3 3 1012.8 1012.7 0.0
27/04:00am 19.8 22.2 18.8 94 0.6 W 4 4 2 2 1012.8 1012.7 0.0
27/03:30am 19.7 21.6 18.5 93 0.7 W 6 6 3 3 1012.9 1012.8 0.0
27/03:00am 20.0 22.1 19.0 94 0.6 NW 6 7 3 4 1012.9 1012.8 0.0
27/02:30am 20.1 22.0 18.6 91 0.9 N 6 7 3 4 1013.1 1013.0 0.0
27/02:00am 20.6 22.8 19.3 92 0.8 N 6 6 3 3 1013.2 1013.1 0.0
27/01:30am 20.5 23.9 19.3 93 0.8 CALM 0 0 0 0 1013.3 1013.2 0.0
27/01:00am 20.5 23.8 19.2 92 0.8 CALM 0 0 0 0 1013.5 1013.4 0.0
27/12:30am 20.6 23.9 19.1 91 0.9 CALM 0 0 0 0 1013.7 1013.6 0.0
27/12:00am 20.6 24.0 19.3 92 0.8 CALM 0 0 0 0 1013.5 1013.4 0.0
 
Date/Time
EST
Temp
°C
App
Temp
°C
Dew
Point
Rel
Hum
%
Delta-T
°C
Wind Press
QNH
hPa
Press
MSL
hPa
Rain
since 9 am
mm
Dir
 
Spd
km/h
Gust
km/h
Spd
kts
Gust
kts
26/11:30pm 20.2 23.3 18.7 91 0.9 CALM 0 0 0 0 1013.6 1013.5 0.0
26/11:00pm 20.6 24.0 19.3 92 0.8 CALM 0 0 0 0 1013.7 1013.6 0.0
26/10:30pm 19.9 22.7 17.9 88 1.2 CALM 0 0 0 0 1013.9 1013.8 0.0
26/10:00pm 20.8 23.6 18.9 89 1.2 N 2 2 1 1 1014.0 1013.9 0.0
26/09:30pm 20.9 24.1 18.8 88 1.3 CALM 0 0 0 0 1014.4 1014.3 0.0
26/09:00pm 21.4 24.3 19.1 87 1.5 N 2 4 1 2 1014.4 1014.3 0.0
26/08:30pm 21.6 24.4 18.8 84 1.8 N 2 4 1 2 1014.4 1014.3 0.0
26/08:00pm 21.6 24.9 19.0 85 1.6 CALM 0 0 0 0 1014.3 1014.2 0.0
26/07:30pm 22.0 25.1 18.6 81 2.1 CALM 0 0 0 0 1014.1 1014.0 0.0
26/07:00pm 23.2 26.3 19.4 79 2.4 N 2 2 1 1 1013.7 1013.6 0.0
26/06:30pm 23.7 26.0 19.4 77 2.8 N 6 7 3 4 1013.4 1013.3 0.0
26/06:00pm 24.5 26.8 19.8 75 3.0 N 7 9 4 5 1013.0 1012.9 0.0
26/05:30pm 25.2 26.6 19.6 71 3.6 N 11 17 6 9 1012.9 1012.8 0.0
26/05:00pm 25.9 26.9 19.5 68 4.1 N 13 19 7 10 1012.7 1012.6 0.0
26/04:30pm 26.2 26.7 19.3 65 4.4 NNE 15 24 8 13 1012.5 1012.4 0.0
26/04:00pm 27.0 27.8 19.9 65 4.6 NNE 15 20 8 11 1012.5 1012.4 0.0
26/03:30pm 26.6 26.7 19.2 64 4.8 NNE 17 24 9 13 1012.8 1012.7 0.0
26/03:00pm 26.8 26.3 18.6 60 5.2 NE 19 24 10 13 1012.9 1012.8 0.0
26/02:30pm 27.6 27.3 18.3 57 5.9 NE 17 24 9 13 1013.3 1013.2 0.0
26/02:00pm 28.0 27.9 17.8 54 6.5 NNE 15 20 8 11 1013.7 1013.6 0.0
26/01:30pm 27.7 27.7 18.1 56 6.1 NE 15 22 8 12 1014.0 1013.9 0.0
26/01:00pm 28.0 28.3 17.8 54 6.5 NNE 13 19 7 10 1014.5 1014.4 0.0
26/12:30pm 27.9 28.2 18.0 55 6.3 NNE 13 20 7 11 1014.9 1014.8 0.0
26/12:00pm 27.8 29.1 19.3 60 5.5 ESE 11 17 6 9 1015.4 1015.3 0.0
26/11:30am 26.9 28.5 20.0 66 4.5 SE 11 15 6 8 1015.7 1015.6 0.0
26/11:00am 26.0 27.4 19.6 68 4.1 ESE 11 15 6 8 1016.2 1016.1 0.0
26/10:30am 26.7 28.8 20.1 67 4.3 ESE 9 13 5 7 1016.5 1016.4 0.0
26/10:00am 25.9 27.3 19.5 68 4.1 ESE 11 13 6 7 1016.5 1016.4 0.0
26/09:30am 25.3 26.9 19.9 72 3.5 SE 11 13 6 7 1016.7 1016.6 0.0
26/09:00am 24.4 26.8 20.1 77 2.8 SE 7 11 4 6 1016.7 1016.6 0.0
26/08:30am 22.9 25.8 19.9 83 1.9 SW 4 6 2 3 1016.7 1016.6 0.0
26/08:00am 20.8 23.1 19.5 92 0.8 SW 6 6 3 3 1016.4 1016.3 0.0
26/07:30am 19.5 21.0 18.8 96 0.4 SW 9 11 5 6 1016.4 1016.3 0.0
26/07:00am 18.4 19.5 18.1 98 0.2 SW 9 9 5 5 1016.1 1016.0 0.0
26/06:30am 17.9 18.8 17.6 98 0.2 SW 9 9 5 5 1015.9 1015.8 0.0
26/06:00am 17.5 18.6 17.2 98 0.2 SW 7 9 4 5 1015.7 1015.6 0.0
26/05:30am 17.5 18.6 17.0 97 0.3 SW 7 9 4 5 1015.4 1015.3 0.0
26/05:00am 17.8 19.0 17.3 97 0.3 SW 7 7 4 4 1015.4 1015.3 0.0
26/04:30am 18.0 19.4 17.7 98 0.2 SW 7 7 4 4 1015.3 1015.2 0.0
26/04:00am 18.0 18.9 17.5 97 0.3 SW 9 11 5 6 1015.3 1015.2 0.0
26/03:30am 18.1 19.4 17.6 97 0.3 SW 7 9 4 5 1015.4 1015.3 0.0
26/03:00am 18.3 19.7 17.8 97 0.3 SW 7 9 4 5 1015.3 1015.2 0.0
26/02:30am 18.3 19.6 17.5 95 0.5 SSW 7 7 4 4 1015.4 1015.3 0.0
26/02:00am 19.1 20.8 18.1 94 0.6 SSW 6 7 3 4 1015.6 1015.5 0.0
26/01:30am 20.1 23.0 19.1 94 0.6 SSE 2 4 1 2 1015.9 1015.8 0.0
26/01:00am 20.8 23.1 19.5 92 0.8 SSE 6 7 3 4 1016.1 1016.0 0.0
26/12:30am 21.3 23.3 19.9 92 0.9 SSE 9 13 5 7 1016.0 1015.9 0.0
26/12:00am 21.2 23.3 20.2 94 0.6 SSE 9 11 5 6 1016.1 1016.0 0.0
 
Date/Time
EST
Temp
°C
App
Temp
°C
Dew
Point
Rel
Hum
%
Delta-T
°C
Wind Press
QNH
hPa
Press
MSL
hPa
Rain
since 9 am
mm
Dir
 
Spd
km/h
Gust
km/h
Spd
kts
Gust
kts
25/11:30pm 21.4 23.8 20.0 92 0.9 SSE 7 9 4 5 1016.4 1016.3 0.0
25/11:00pm 22.3 24.8 21.1 93 0.8 SE 9 13 5 7 1016.7 1016.6 0.0
25/10:30pm 22.6 24.8 21.1 91 1.0 SE 11 13 6 7 1016.9 1016.8 0.0
25/10:00pm 22.4 24.9 21.0 92 0.9 SE 9 15 5 8 1017.1 1017.0 0.0
25/09:30pm 21.9 24.3 20.0 89 1.2 SSE 7 9 4 5 1017.1 1017.0 0.0
25/09:00pm 22.0 24.0 19.9 88 1.3 SSE 9 11 5 6 1016.9 1016.8 0.0
25/08:30pm 22.3 24.2 19.7 85 1.7 SSE 9 13 5 7 1016.7 1016.6 0.0
25/08:00pm 22.9 24.5 19.9 83 1.9 SSE 11 15 6 8 1016.5 1016.4 0.0
25/07:30pm 24.2 25.3 19.7 76 2.9 ESE 13 19 7 10 1016.1 1016.0 0.0
25/07:00pm 24.6 25.1 19.2 72 3.5 ESE 15 19 8 10 1015.6 1015.5 0.0
25/06:30pm 24.8 25.7 19.2 71 3.6 ESE 13 19 7 10 1015.2 1015.1 0.0
25/06:00pm 24.8 25.1 18.7 69 3.9 ENE 15 20 8 11 1014.8 1014.7 0.0
25/05:30pm 25.2 25.2 18.9 68 4.0 E 17 22 9 12 1014.6 1014.5 0.0
25/05:00pm 26.0 25.7 18.2 62 4.9 E 17 20 9 11 1014.4 1014.3 0.0
25/04:30pm 26.9 26.0 17.7 57 5.8 E 19 24 10 13 1014.2 1014.1 0.0
25/04:00pm 27.3 26.6 18.3 58 5.7 E 19 26 10 14 1013.9 1013.8 0.0
25/03:30pm 27.2 26.5 18.2 58 5.7 E 19 26 10 14 1013.8 1013.7 0.0
25/03:00pm 27.6 26.5 17.7 54 6.3 ENE 20 28 11 15 1013.8 1013.7 0.0
25/02:30pm 28.1 27.3 17.9 54 6.5 ENE 19 26 10 14 1013.9 1013.8 0.0
25/02:00pm 28.3 28.1 18.4 55 6.3 E 17 26 9 14 1014.1 1014.0 0.0
25/01:30pm 28.0 27.8 17.5 52 6.6 ESE 15 20 8 11 1014.3 1014.2 0.0
25/01:00pm 27.1 27.8 18.9 61 5.3 ESE 13 17 7 9 1014.8 1014.7 0.0
25/12:30pm 27.3 28.1 19.1 61 5.3 ESE 13 20 7 11 1015.5 1015.4 0.0
25/12:00pm 26.7 26.9 19.3 64 4.8 ESE 17 20 9 11 1016.0 1015.9 0.0
25/11:30am 26.6 27.1 19.2 64 4.8 SE 15 19 8 10 1016.5 1016.4 0.0
25/11:00am 26.4 27.0 19.5 66 4.5 SE 15 20 8 11 1016.6 1016.5 0.0
25/10:30am 26.5 28.2 19.4 65 4.6 SE 9 13 5 7 1017.1 1017.0 0.0
25/10:00am 25.1 26.7 19.2 70 3.8 SE 9 13 5 7 1017.2 1017.1 0.0
25/09:30am 24.0 25.7 19.3 75 3.0 SE 9 13 5 7 1017.3 1017.2 0.0
25/09:00am 23.6 25.7 19.3 77 2.7 SE 7 9 4 5 1017.0 1016.9 0.0
25/08:30am 23.1 25.1 19.1 78 2.5 SSE 7 9 4 5 1016.9 1016.8 0.0
25/08:00am 21.3 23.4 18.1 82 2.0 SSW 4 7 2 4 1016.2 1016.1 0.0
25/07:30am 19.7 20.9 17.3 86 1.5 SW 7 11 4 6 1016.2 1016.1 0.0
25/07:00am 19.1 20.4 17.1 88 1.2 SW 6 6 3 3 1016.0 1015.9 0.0
25/06:30am 18.9 20.0 16.7 87 1.3 SW 6 7 3 4 1015.6 1015.5 0.0
25/06:00am 18.9 19.4 16.5 86 1.4 SW 9 13 5 7 1015.6 1015.5 0.0
25/05:30am 18.9 19.8 16.7 87 1.3 SW 7 9 4 5 1015.2 1015.1 0.0
25/05:00am 18.6 18.7 16.4 87 1.3 SW 11 13 6 7 1014.9 1014.8 0.0
25/04:30am 18.5 19.4 16.1 86 1.4 SW 6 6 3 3 1015.1 1015.0 0.0
25/04:00am 18.7 19.8 16.5 87 1.3 SW 6 7 3 4 1015.1 1015.0 0.0
25/03:30am 18.9 19.8 16.5 86 1.4 SSW 7 7 4 4 1015.2 1015.1 0.0
25/03:00am 19.3 20.6 17.1 87 1.3 SSW 6 6 3 3 1015.4 1015.3 0.0
25/02:30am 19.7 21.5 17.3 86 1.5 WSW 4 7 2 4 1015.3 1015.2 0.0
25/02:00am 19.9 21.4 17.5 86 1.5 SSE 6 7 3 4 1015.8 1015.7 0.0
25/01:30am 21.8 23.9 19.4 86 1.5 SE 7 11 4 6 1016.1 1016.0 0.0
25/01:00am 21.5 23.1 19.2 87 1.5 SE 9 11 5 6 1016.5 1016.4 0.0
25/12:30am 21.5 23.5 19.1 86 1.5 SE 7 9 4 5 1016.6 1016.5 0.0
25/12:00am 20.9 22.3 17.7 82 2.0 SE 7 9 4 5 1016.8 1016.7 0.0
 
Date/Time
EST
Temp
°C
App
Temp
°C
Dew
Point
Rel
Hum
%
Delta-T
°C
Wind Press
QNH
hPa
Press
MSL
hPa
Rain
since 9 am
mm
Dir
 
Spd
km/h
Gust
km/h
Spd
kts
Gust
kts
24/11:30pm 21.4 23.1 18.0 81 2.1 SSE 6 7 3 4 1017.0 1016.9 0.0
24/11:00pm 20.2 20.8 15.8 76 2.6 SSE 7 9 4 5 1017.1 1017.0 0.0
24/10:30pm 20.5 21.7 15.9 75 2.7 SSE 4 6 2 3 1017.2 1017.1 0.0
24/10:00pm 21.3 21.8 15.6 70 3.4 SSE 7 7 4 4 1017.3 1017.2 0.0
24/09:30pm 22.4 23.2 16.4 69 3.6 SSE 7 9 4 5 1017.4 1017.3 0.0
24/09:00pm 24.8 24.1 16.5 60 5.1 E 15 20 8 11 1017.0 1016.9 0.0
24/08:30pm 24.9 24.1 16.1 58 5.4 E 15 20 8 11 1017.1 1017.0 0.0

Other Formats:

Comma delimited format used in spreadsheet applications
http://www.bom.gov.au/fwo/IDQ60801/IDQ60801.94383.axf

JavaScript Object Notation format (JSON) in row-major order
http://www.bom.gov.au/fwo/IDQ60801/IDQ60801.94383.json